MDQ weather

Madison County Executive Airport-Tom Sharp Jr Field
Huntsville, Alabama, United States

Public forecast

Using degrees Fahrenheit for public forecast. Weather courtesy of forecast.io.

Current aviation weather report (METAR) for Madison County Executive Airport-Tom Sharp Jr Field

Retrieved 2019/10/22 17:35 UTC (0 seconds ago):

KMDQ 221735Z AUTO 27012KT 10SM CLR 18/05 A3002 RMK A02 T01840050

Closest aviation forecast (TAF) to Madison County Executive Airport-Tom Sharp Jr Field

Closest forecast is Huntsville International Carl T Jones Field, 17.2 nm (31.9 km) SW. Retrieved 2019/10/22 12:22 UTC (5 hours ago):

TAF KHSV 221120Z 2212/2312 28006KT P6SM SCT030 SCT150 FM221500 28015G22KT P6SM SKC FM230200 VRB03KT P6SM SKC